Flight Track Log - Related Links

Times and Time Zones

All times are in EDT time to prevent confusion due to time zone crossing. See the THY1613 flight status page for this flight to view local times or setup timezone preferences in your user account.


Time Position Orientation Groundspeed Altitude Reporting Facility
EDT Latitude Longitude Course Direction KTS MPH feet Rate Location/Type
Wed 08:42:00 PM 37.4717 34.6101 313° West  Level Estimated
Wed 08:43:00 PM 37.5414 34.5136 312° West  Level Estimated
Wed 08:44:00 PM 37.6109 34.4170 312° West  Level Estimated
Wed 08:45:00 PM 37.6804 34.3202 312° West  Level Estimated
Wed 08:46:00 PM 37.7498 34.2232 312° West  Level Estimated
Wed 08:47:00 PM 37.8191 34.1260 312° West  Level Estimated
Wed 08:48:00 PM 37.8883 34.0286 312° West  Level Estimated
Wed 08:49:00 PM 37.9575 33.9310 312° West  Level Estimated
Wed 08:50:00 PM 38.0266 33.8333 312° West  Level Estimated
Wed 08:51:00 PM 38.0955 33.7354 312° West  Level Estimated
Wed 08:52:00 PM 38.1645 33.6373 312° West  Level Estimated
Wed 08:53:00 PM 38.2333 33.5390 312° West  Level Estimated
Wed 08:54:00 PM 38.3020 33.4405 312° West  Level Estimated
Wed 08:55:00 PM 38.3707 33.3418 312° West  Level Estimated
Wed 08:56:00 PM 38.4393 33.2430 312° West  Level Estimated
Wed 08:57:00 PM 38.5078 33.1439 311° West  Level Estimated
Wed 08:58:00 PM 38.5762 33.0447 311° West  Level Estimated
Wed 08:59:00 PM 38.6445 32.9453 311° West  Level Estimated
Wed 09:00:00 PM 38.7128 32.8456 311° West  Level Estimated
Wed 09:01:00 PM 38.7809 32.7458 311° West  Level Estimated
Wed 09:02:00 PM 38.8490 32.6459 311° West  Level Estimated
Wed 09:03:00 PM 38.9170 32.5457 311° West  Level Estimated
Wed 09:04:00 PM 38.9849 32.4453 311° West  Level Estimated
Wed 09:05:00 PM 39.0527 32.3447 311° West  Level Estimated
Wed 09:06:00 PM 39.1204 32.2440 311° West  Level Estimated
Wed 09:07:00 PM 39.1881 32.1430 311° West  Level Estimated
Wed 09:08:00 PM 39.2556 32.0419 311° West  Level Estimated
Wed 09:09:00 PM 39.3231 31.9405 311° West  Level Estimated
Wed 09:10:00 PM 39.3905 31.8390 311° West  Level Estimated
Wed 09:11:00 PM 39.4578 31.7372 311° West  Level Estimated
Wed 09:12:00 PM 39.5250 31.6353 311° West  Level Estimated
Wed 09:13:00 PM 39.5921 31.5332 310° West  Level Estimated
Wed 09:14:00 PM 39.6591 31.4308 310° West  Level Estimated
Wed 09:15:00 PM 39.7261 31.3283 310° West  Level Estimated
Wed 09:16:00 PM 39.7929 31.2256 310° West  Level Estimated
Wed 09:17:00 PM 39.8597 31.1227 310° West  Level Estimated
Wed 09:18:00 PM 39.9264 31.0195 310° West  Level Estimated
Wed 09:19:00 PM 39.9929 30.9162 310° West  Level Estimated
Wed 09:20:00 PM 40.0594 30.8127 310° West  Level Estimated
Wed 09:21:00 PM 40.1258 30.7089 310° West  Level Estimated
Wed 09:22:00 PM 40.1921 30.6050 310° West  Level Estimated
Wed 09:23:00 PM 40.2583 30.5009 310° West  Level Estimated
Wed 09:24:00 PM 40.3244 30.3965 310° West  Level Estimated
Wed 09:25:00 PM 40.3904 30.2920 310° West  Level Estimated
Wed 09:26:00 PM 40.4563 30.1872 310° West  Level Estimated
Wed 09:27:00 PM 40.5222 30.0823 310° West  Level Estimated
Wed 09:28:00 PM 40.5879 29.9771 309° West  Level Estimated
Wed 09:29:00 PM 40.6535 29.8717 309° West  Level Estimated
Wed 09:30:00 PM 40.7191 29.7662 309° West  Level Estimated
Wed 09:31:00 PM 40.7845 29.6604 309° West  Level Estimated
Wed 09:32:00 PM 40.8499 29.5544 309° West  Level Estimated
Wed 09:33:00 PM 40.9151 29.4482 309° West  Level Estimated
Wed 09:34:00 PM 40.9803 29.3418 309° West  Level Estimated
Wed 09:35:00 PM 41.0453 29.2352 309° West  Level Estimated
Wed 09:36:00 PM 41.1103 29.1283 309° West  Level Estimated
Wed 09:37:00 PM 41.1751 29.0213 309° West  Level Estimated
Wed 09:38:00 PM 41.2399 28.9140 309° West  Level Estimated
Wed 09:39:00 PM 41.3046 28.8066 309° West  Level Estimated
Wed 09:40:00 PM 41.3691 28.6989 309° West  Level Estimated
Wed 09:41:00 PM 41.4336 28.5910 309° West  Level Estimated
Wed 09:42:00 PM 41.4979 28.4829 308° West  Level Estimated
Wed 09:43:00 PM 41.5622 28.3745 308° West  Level Estimated
Wed 09:44:00 PM 41.6263 28.2660 308° West  Level Estimated
Wed 09:45:00 PM 41.6904 28.1572 308° West  Level Estimated
Wed 09:46:00 PM 41.7543 28.0483 308° West  Level Estimated
Wed 09:47:00 PM 41.8182 27.9391 308° West  Level Estimated
Wed 09:48:00 PM 41.8819 27.8297 308° West  Level Estimated
Wed 09:49:00 PM 41.9455 27.7201 308° West  Level Estimated
Wed 09:50:00 PM 42.0091 27.6102 308° West  Level Estimated
Wed 09:51:00 PM 42.0725 27.5002 308° West  Level Estimated
Wed 09:52:00 PM 42.1358 27.3899 308° West  Level Estimated
Wed 09:53:00 PM 42.1991 27.2794 308° West  Level Estimated
Wed 09:54:00 PM 42.2622 27.1686 308° West  Level Estimated
Wed 09:55:00 PM 42.3252 27.0577 308° West  Level Estimated
Wed 09:56:00 PM 42.3881 26.9465 307° West  Level Estimated
Wed 09:57:00 PM 42.4509 26.8351 307° West  Level Estimated
Wed 09:58:00 PM 42.5135 26.7235 307° West  Level Estimated
Wed 09:59:00 PM 42.5761 26.6117 307° West  Level Estimated
Wed 10:00:00 PM 42.6386 26.4996 307° West  Level Estimated
Wed 10:01:00 PM 42.7009 26.3873 307° West  Level Estimated
Wed 10:02:00 PM 42.7631 26.2748 307° West  Level Estimated
Wed 10:03:00 PM 42.8253 26.1621 307° West  Level Estimated
Wed 10:04:00 PM 42.8873 26.0491 307° West  Level Estimated
Wed 10:05:00 PM 42.9492 25.9359 307° West  Level Estimated
Wed 10:06:00 PM 43.0110 25.8225 307° West  Level Estimated
Wed 10:07:00 PM 43.0727 25.7088 307° West  Level Estimated
Wed 10:08:00 PM 43.1343 25.5949 307° West  Level Estimated
Wed 10:09:00 PM 43.1957 25.4808 306° West  Level Estimated
Wed 10:10:00 PM 43.2571 25.3665 306° West  Level Estimated
Wed 10:11:00 PM 43.3183 25.2519 306° West  Level Estimated
Wed 10:12:00 PM 43.3794 25.1371 306° West  Level Estimated
Wed 10:13:00 PM 43.4404 25.0221 306° West  Level Estimated
Wed 10:14:00 PM 43.5013 24.9068 306° West  Level Estimated
Wed 10:15:00 PM 43.5621 24.7913 306° West  Level Estimated
Wed 10:16:00 PM 43.6227 24.6756 306° West  Level Estimated
Wed 10:17:00 PM 43.6833 24.5597 306° West  Level Estimated
Wed 10:18:00 PM 43.7437 24.4435 306° West  Level Estimated
Wed 10:19:00 PM 43.8040 24.3270 306° West  Level Estimated
Wed 10:20:00 PM 43.8642 24.2104 306° West  Level Estimated
Wed 10:21:00 PM 43.9243 24.0935 306° West  Level Estimated
Wed 10:22:00 PM 43.9842 23.9763 305° West  Level Estimated
Wed 10:23:00 PM 44.0440 23.8589 305° West  Level Estimated
Wed 10:24:00 PM 44.1037 23.7413 305° West  Level Estimated
Wed 10:25:00 PM 44.1633 23.6235 305° West  Level Estimated
Wed 10:26:00 PM 44.2228 23.5054 305° West  Level Estimated
Wed 10:27:00 PM 44.2821 23.3871 305° West  Level Estimated
Wed 10:28:00 PM 44.3413 23.2685 305° West  Level Estimated
Wed 10:29:00 PM 44.4004 23.1497 305° West  Level Estimated
Wed 10:30:00 PM 44.4594 23.0307 305° West  Level Estimated
Wed 10:31:00 PM 44.5183 22.9114 305° West  Level Estimated
Wed 10:32:00 PM 44.5770 22.7918 305° West  Level Estimated
Wed 10:33:00 PM 44.6356 22.6721 305° West  Level Estimated
Wed 10:34:00 PM 44.6940 22.5521 304° West  Level Estimated
Wed 10:35:00 PM 44.7524 22.4318 304° West  Level Estimated
Wed 10:36:00 PM 44.8106 22.3113 304° West  Level Estimated
Wed 10:37:00 PM 44.8687 22.1906 304° West  Level Estimated
Wed 10:38:00 PM 44.9267 22.0696 304° West  Level Estimated
Wed 10:39:00 PM 44.9845 21.9484 304° West  Level Estimated
Wed 10:40:00 PM 45.0422 21.8269 304° West  Level Estimated
Wed 10:41:00 PM 45.0998 21.7052 304° West  Level Estimated
Wed 10:42:00 PM 45.1573 21.5832 304° West  Level Estimated
Wed 10:43:00 PM 45.2146 21.4610 304° West  Level Estimated
Wed 10:44:00 PM 45.2718 21.3386 304° West  Level Estimated
Wed 10:45:00 PM 45.3288 21.2159 304° West  Level Estimated
Wed 10:46:00 PM 45.3858 21.0929 303° West  Level Estimated
Wed 10:47:00 PM 45.4426 20.9697 303° West  Level Estimated
Wed 10:48:00 PM 45.4992 20.8463 303° West  Level Estimated
Wed 10:49:00 PM 45.5558 20.7226 303° West  Level Estimated
Wed 10:50:00 PM 45.6121 20.5987 303° West  Level Estimated
Wed 10:51:00 PM 45.6684 20.4745 303° West  Level Estimated
Wed 10:52:00 PM 45.7245 20.3500 303° West  Level Estimated
Wed 10:53:00 PM 45.7805 20.2253 303° West  Level Estimated
Wed 10:54:00 PM 45.8364 20.1004 303° West  Level Estimated
Wed 10:55:00 PM 45.8921 19.9752 303° West  Level Estimated
Wed 10:56:00 PM 45.9477 19.8498 303° West  Level Estimated
Wed 10:57:00 PM 46.0031 19.7241 302° West  Level Estimated
Wed 10:58:00 PM 46.0584 19.5981 302° West  Level Estimated
Wed 10:59:00 PM 46.1136 19.4719 302° West  Level Estimated
Wed 11:00:00 PM 46.1687 19.3455 302° West  Level Estimated
Wed 11:01:00 PM 46.2235 19.2188 302° West  Level Estimated
Wed 11:02:00 PM 46.2783 19.0918 302° West  Level Estimated
Wed 11:03:00 PM 46.3329 18.9646 302° West  Level Estimated
Wed 11:04:00 PM 46.3874 18.8372 302° West  Level Estimated
Wed 11:05:00 PM 46.4417 18.7094 302° West  Level Estimated
Wed 11:06:00 PM 46.4959 18.5815 302° West  Level Estimated
Wed 11:07:00 PM 46.5499 18.4532 302° West  Level Estimated
Wed 11:08:00 PM 46.6038 18.3248 301° West  Level Estimated
Wed 11:09:00 PM 46.6576 18.1960 301° West  Level Estimated
Wed 11:10:00 PM 46.7112 18.0670 301° West  Level Estimated
Wed 11:11:00 PM 46.7646 17.9378 301° West  Level Estimated
Wed 11:12:00 PM 46.8180 17.8083 301° West  Level Estimated
Wed 11:13:00 PM 46.8711 17.6785 301° West  Level Estimated
Wed 11:14:00 PM 46.9241 17.5485 301° West  Level Estimated
Wed 11:15:00 PM 46.9770 17.4182 301° West  Level Estimated
Wed 11:16:00 PM 47.0298 17.2877 301° West  Level Estimated
Wed 11:17:00 PM 47.0823 17.1569 301° West  Level Estimated
Wed 11:18:00 PM 47.1348 17.0258 300° West  Level Estimated
Wed 11:19:00 PM 47.1870 16.8945 300° West  Level Estimated
Wed 11:20:00 PM 47.2392 16.7630 300° West  Level Estimated
Wed 11:21:00 PM 47.2912 16.6311 300° West  Level Estimated
Wed 11:22:00 PM 47.3430 16.4991 300° West  Level Estimated
Wed 11:23:00 PM 47.3947 16.3667 300° West  Level Estimated
Wed 11:24:00 PM 47.4462 16.2341 300° West  Level Estimated
Wed 11:25:00 PM 47.4976 16.1012 300° West  Level Estimated
Wed 11:26:00 PM 47.5488 15.9681 300° West  Level Estimated
Wed 11:27:00 PM 47.5998 15.8348 300° West  Level Estimated
Wed 11:28:00 PM 47.6507 15.7011 300° West  Level Estimated
Wed 11:29:00 PM 47.7015 15.5672 299° West  Level Estimated
Wed 11:30:00 PM 47.7521 15.4331 299° West  Level Estimated
Wed 11:31:00 PM 47.8025 15.2986 299° West  Level Estimated
Wed 11:32:00 PM 47.8528 15.1639 299° West  Level Estimated
Wed 11:33:00 PM 47.9029 15.0290 299° West  Level Estimated
Wed 11:34:00 PM 47.9529 14.8938 299° West  Level Estimated
Wed 11:35:00 PM 48.0027 14.7583 299° West  Level Estimated
Wed 11:36:00 PM 48.0524 14.6226 299° West  Level Estimated
Wed 11:37:00 PM 48.1018 14.4866 299° West  Level Estimated
Wed 11:38:00 PM 48.1512 14.3503 299° West  Level Estimated
Wed 11:39:00 PM 48.2003 14.2138 298° West  Level Estimated
Wed 11:40:00 PM 48.2493 14.0770 298° West  Level Estimated
Wed 11:41:00 PM 48.2982 13.9400 298° West  Level Estimated
Wed 11:42:00 PM 48.3469 13.8027 298° West  Level Estimated
Wed 11:43:00 PM 48.3954 13.6651 298° West  Level Estimated
Wed 11:44:00 PM 48.4437 13.5273 298° West  Level Estimated
Wed 11:45:00 PM 48.4919 13.3892 298° West  Level Estimated
Wed 11:46:00 PM 48.5399 13.2509 298° West  Level Estimated
Wed 11:47:00 PM 48.5878 13.1123 298° West  Level Estimated
Wed 11:48:00 PM 48.6355 12.9734 297° West  Level Estimated
Wed 11:49:00 PM 48.6830 12.8342 297° West  Level Estimated
Wed 11:50:00 PM 48.7303 12.6948 297° West  Level Estimated
Wed 11:51:00 PM 48.7775 12.5552 297° West  Level Estimated
Wed 11:52:00 PM 48.8245 12.4152 297° West  Level Estimated
Wed 11:53:00 PM 48.8714 12.2751 297° West  Level Estimated
Wed 11:54:00 PM 48.9180 12.1346 297° West  Level Estimated
Wed 11:55:00 PM 48.9645 11.9939 297° West  Level Estimated
Wed 11:56:00 PM 49.0109 11.8529 297° West  Level Estimated
Wed 11:57:00 PM 49.0570 11.7117 297° West  Level Estimated
Wed 11:58:00 PM 49.1030 11.5702 296° West  Level Estimated
Wed 11:59:00 PM 49.1488 11.4284 296° West  Level Estimated
Thu 12:00:00 AM 49.1945 11.2864 296° West  Level Estimated
Thu 12:01:00 AM 49.2399 11.1441 296° West  Level Estimated
Thu 12:02:00 AM 49.2852 11.0016 296° West  Level Estimated
Thu 12:03:00 AM 49.3303 10.8588 296° West  Level Estimated
Thu 12:04:00 AM 49.3753 10.7157 296° West  Level Estimated
Thu 12:05:00 AM 49.4200 10.5724 296° West  Level Estimated
Thu 12:06:00 AM 49.4646 10.4288 296° West  Level Estimated
Thu 12:07:00 AM 49.5090 10.2849 295° West  Level Estimated
Thu 12:08:00 AM 49.5532 10.1408 295° West  Level Estimated
Thu 12:09:00 AM 49.5973 9.9965 295° West  Level Estimated
Thu 12:10:00 AM 49.6412 9.8518 295° West  Level Estimated
Thu 12:11:00 AM 49.6848 9.7069 295° West  Level Estimated
Thu 12:12:00 AM 49.7284 9.5618 295° West  Level Estimated
Thu 12:13:00 AM 49.7717 9.4164 295° West  Level Estimated
Thu 12:14:00 AM 49.8148 9.2707 295° West  Level Estimated
Thu 12:15:00 AM 49.8578 9.1248 295° West  Level Estimated
Thu 12:16:00 AM 49.9005 8.9786 294° West  Level Estimated

Login

Don't have an account? Register now (free) for customized features, flight alerts, and more!